Hlavní strana
METAR-TAF:

METAR-TAF

Letiště :

Centralia Municipal Airport

Centralia, Illinois, Spojené státy americké

zeměpisná šířka: 38-30-53N, zeměpisná délka: 089-05-32W, výška: 163 m

Aktuální stav počasí

Zpráva byla vytvořena před 12 minutami, v 00:55 UTC
Východojihovýchodní vítr 4 kt
Teplota 1°C
Vlhkost vzduchu 93%
Tlak 1025 hPa
Viditelnost: 16.1 km
Jasno

METAR: KENL 080055Z AUTO 12004KT 10SM CLR 01/00 A3026 RMK AO2 T00130004

Čas: 19:07 (01:07 UTC)


TAF: chybějící

Stav a předpovědi počasí z více než 4 000 letišť (zprávy METAR a TAF).

Červené a žluté tečky na mapě představují dostupné meteorologické stanice.

Když kurzor umístíte na tečku, zobrazí se název stanice.

Pak kliknutím zobrazíte stav a předpověď počasí.

Chcete-li změnit mapu, kliknutím na zelené tlačítko se znaménkem +mapu přiblížíte, kliknutím na zelené tlačítko se znaménkem – mapu oddálíte a kliknutím na zelené šipky přejdete na sousední mapy.


METAR-TAF: